sensor_id;sensor_type;location;lat;lon;timestamp;P1;durP1;ratioP1;P2;durP2;ratioP2
63217;SDS011;49314;48.278;16.378;2024-03-06T00:00:22;28.73;;;24.15;;
63217;SDS011;49314;48.278;16.378;2024-03-06T00:02:47;33.20;;;27.33;;
63217;SDS011;49314;48.278;16.378;2024-03-06T00:05:12;29.83;;;25.13;;
63217;SDS011;49314;48.278;16.378;2024-03-06T00:07:38;28.73;;;23.88;;
63217;SDS011;49314;48.278;16.378;2024-03-06T00:10:03;29.65;;;25.90;;
63217;SDS011;49314;48.278;16.378;2024-03-06T00:12:30;30.10;;;26.13;;
63217;SDS011;49314;48.278;16.378;2024-03-06T00:14:55;30.70;;;26.45;;
63217;SDS011;49314;48.278;16.378;2024-03-06T00:17:20;29.67;;;24.48;;
63217;SDS011;49314;48.278;16.378;2024-03-06T00:19:45;30.10;;;27.10;;
63217;SDS011;49314;48.278;16.378;2024-03-06T00:22:11;30.67;;;25.65;;
63217;SDS011;49314;48.278;16.378;2024-03-06T00:24:36;35.10;;;28.77;;
63217;SDS011;49314;48.278;16.378;2024-03-06T00:27:01;38.30;;;28.73;;
63217;SDS011;49314;48.278;16.378;2024-03-06T00:29:29;46.33;;;33.20;;
63217;SDS011;49314;48.278;16.378;2024-03-06T00:31:54;36.65;;;28.13;;
63217;SDS011;49314;48.278;16.378;2024-03-06T00:34:20;45.13;;;30.83;;
63217;SDS011;49314;48.278;16.378;2024-03-06T00:36:45;32.03;;;26.00;;
63217;SDS011;49314;48.278;16.378;2024-03-06T00:39:11;36.03;;;27.75;;
63217;SDS011;49314;48.278;16.378;2024-03-06T00:41:36;38.45;;;28.30;;
63217;SDS011;49314;48.278;16.378;2024-03-06T00:44:01;36.95;;;27.40;;
63217;SDS011;49314;48.278;16.378;2024-03-06T00:46:27;28.50;;;25.17;;
63217;SDS011;49314;48.278;16.378;2024-03-06T00:48:52;31.55;;;27.23;;
63217;SDS011;49314;48.278;16.378;2024-03-06T00:51:18;35.03;;;30.35;;
63217;SDS011;49314;48.278;16.378;2024-03-06T00:53:44;37.88;;;30.00;;
63217;SDS011;49314;48.278;16.378;2024-03-06T00:56:09;32.45;;;26.95;;
63217;SDS011;49314;48.278;16.378;2024-03-06T00:58:35;31.52;;;27.33;;
63217;SDS011;49314;48.278;16.378;2024-03-06T01:01:00;29.55;;;25.67;;
63217;SDS011;49314;48.278;16.378;2024-03-06T01:03:25;29.85;;;25.77;;
63217;SDS011;49314;48.278;16.378;2024-03-06T01:05:50;31.77;;;26.33;;
63217;SDS011;49314;48.278;16.378;2024-03-06T01:08:18;32.35;;;27.08;;
63217;SDS011;49314;48.278;16.378;2024-03-06T01:10:43;32.45;;;28.05;;
63217;SDS011;49314;48.278;16.378;2024-03-06T01:13:09;32.33;;;28.65;;
63217;SDS011;49314;48.278;16.378;2024-03-06T01:15:35;33.63;;;29.38;;
63217;SDS011;49314;48.278;16.378;2024-03-06T01:18:01;34.00;;;29.45;;
63217;SDS011;49314;48.278;16.378;2024-03-06T01:20:26;29.92;;;26.65;;
63217;SDS011;49314;48.278;16.378;2024-03-06T01:22:51;34.05;;;28.95;;
63217;SDS011;49314;48.278;16.378;2024-03-06T01:25:17;32.50;;;27.15;;
63217;SDS011;49314;48.278;16.378;2024-03-06T01:27:42;34.65;;;28.13;;
63217;SDS011;49314;48.278;16.378;2024-03-06T01:30:07;32.88;;;26.08;;
63217;SDS011;49314;48.278;16.378;2024-03-06T01:32:33;34.03;;;27.73;;
63217;SDS011;49314;48.278;16.378;2024-03-06T01:34:58;37.17;;;30.88;;
63217;SDS011;49314;48.278;16.378;2024-03-06T01:37:23;35.47;;;28.67;;
63217;SDS011;49314;48.278;16.378;2024-03-06T01:39:49;35.00;;;27.50;;
63217;SDS011;49314;48.278;16.378;2024-03-06T01:42:16;34.25;;;27.63;;
63217;SDS011;49314;48.278;16.378;2024-03-06T01:44:41;33.08;;;26.92;;
63217;SDS011;49314;48.278;16.378;2024-03-06T01:47:07;31.73;;;26.42;;
63217;SDS011;49314;48.278;16.378;2024-03-06T01:49:32;38.47;;;30.35;;
63217;SDS011;49314;48.278;16.378;2024-03-06T01:51:57;32.28;;;27.85;;
63217;SDS011;49314;48.278;16.378;2024-03-06T01:54:24;34.63;;;29.33;;
63217;SDS011;49314;48.278;16.378;2024-03-06T01:56:50;41.50;;;30.50;;
63217;SDS011;49314;48.278;16.378;2024-03-06T01:59:16;34.88;;;28.63;;
63217;SDS011;49314;48.278;16.378;2024-03-06T02:01:42;38.47;;;30.63;;
63217;SDS011;49314;48.278;16.378;2024-03-06T02:04:08;39.40;;;29.75;;
63217;SDS011;49314;48.278;16.378;2024-03-06T02:06:38;34.30;;;29.83;;
63217;SDS011;49314;48.278;16.378;2024-03-06T02:09:03;42.33;;;34.13;;
63217;SDS011;49314;48.278;16.378;2024-03-06T02:11:29;39.90;;;31.90;;
63217;SDS011;49314;48.278;16.378;2024-03-06T02:13:54;40.08;;;30.48;;
63217;SDS011;49314;48.278;16.378;2024-03-06T02:16:19;46.75;;;34.22;;
63217;SDS011;49314;48.278;16.378;2024-03-06T02:18:54;45.08;;;34.03;;
63217;SDS011;49314;48.278;16.378;2024-03-06T02:21:22;43.28;;;33.47;;
63217;SDS011;49314;48.278;16.378;2024-03-06T02:23:48;40.58;;;33.70;;
63217;SDS011;49314;48.278;16.378;2024-03-06T02:26:13;40.03;;;31.00;;
63217;SDS011;49314;48.278;16.378;2024-03-06T02:28:39;45.63;;;33.75;;
63217;SDS011;49314;48.278;16.378;2024-03-06T02:31:04;55.10;;;37.03;;
63217;SDS011;49314;48.278;16.378;2024-03-06T02:33:32;47.30;;;33.05;;
63217;SDS011;49314;48.278;16.378;2024-03-06T02:35:58;47.65;;;36.75;;
63217;SDS011;49314;48.278;16.378;2024-03-06T02:38:23;46.42;;;32.72;;
63217;SDS011;49314;48.278;16.378;2024-03-06T02:40:49;43.05;;;34.15;;
63217;SDS011;49314;48.278;16.378;2024-03-06T02:43:15;80.30;;;47.72;;
63217;SDS011;49314;48.278;16.378;2024-03-06T02:45:41;48.17;;;36.70;;
63217;SDS011;49314;48.278;16.378;2024-03-06T02:48:06;48.05;;;33.83;;
63217;SDS011;49314;48.278;16.378;2024-03-06T02:50:31;44.03;;;33.92;;
63217;SDS011;49314;48.278;16.378;2024-03-06T02:52:57;46.85;;;33.55;;
63217;SDS011;49314;48.278;16.378;2024-03-06T02:55:22;45.33;;;33.75;;
63217;SDS011;49314;48.278;16.378;2024-03-06T02:57:49;40.75;;;31.42;;
63217;SDS011;49314;48.278;16.378;2024-03-06T03:00:14;40.67;;;33.50;;
63217;SDS011;49314;48.278;16.378;2024-03-06T03:02:41;44.72;;;35.90;;
63217;SDS011;49314;48.278;16.378;2024-03-06T03:05:06;45.35;;;33.50;;
63217;SDS011;49314;48.278;16.378;2024-03-06T03:07:32;44.08;;;37.47;;
63217;SDS011;49314;48.278;16.378;2024-03-06T03:09:57;47.17;;;35.55;;
63217;SDS011;49314;48.278;16.378;2024-03-06T03:12:22;48.35;;;35.03;;
63217;SDS011;49314;48.278;16.378;2024-03-06T03:14:48;45.45;;;34.55;;
63217;SDS011;49314;48.278;16.378;2024-03-06T03:17:13;49.85;;;35.00;;
63217;SDS011;49314;48.278;16.378;2024-03-06T03:19:40;46.70;;;34.85;;
63217;SDS011;49314;48.278;16.378;2024-03-06T03:22:05;45.72;;;35.38;;
63217;SDS011;49314;48.278;16.378;2024-03-06T03:24:31;48.85;;;39.28;;
63217;SDS011;49314;48.278;16.378;2024-03-06T03:26:56;48.20;;;35.63;;
63217;SDS011;49314;48.278;16.378;2024-03-06T03:29:21;48.97;;;36.33;;
63217;SDS011;49314;48.278;16.378;2024-03-06T03:31:47;45.53;;;36.83;;
63217;SDS011;49314;48.278;16.378;2024-03-06T03:34:12;48.35;;;36.63;;
63217;SDS011;49314;48.278;16.378;2024-03-06T03:36:41;46.28;;;35.83;;
63217;SDS011;49314;48.278;16.378;2024-03-06T03:39:06;49.22;;;38.75;;
63217;SDS011;49314;48.278;16.378;2024-03-06T03:41:33;46.25;;;36.83;;
63217;SDS011;49314;48.278;16.378;2024-03-06T03:43:58;51.70;;;36.10;;
63217;SDS011;49314;48.278;16.378;2024-03-06T03:46:24;46.55;;;36.63;;
63217;SDS011;49314;48.278;16.378;2024-03-06T03:48:49;49.97;;;37.20;;
63217;SDS011;49314;48.278;16.378;2024-03-06T03:51:15;50.40;;;40.53;;
63217;SDS011;49314;48.278;16.378;2024-03-06T03:53:41;48.38;;;37.75;;
63217;SDS011;49314;48.278;16.378;2024-03-06T03:56:06;56.38;;;36.85;;
63217;SDS011;49314;48.278;16.378;2024-03-06T03:58:32;48.20;;;37.70;;
63217;SDS011;49314;48.278;16.378;2024-03-06T04:00:57;50.15;;;37.85;;
63217;SDS011;49314;48.278;16.378;2024-03-06T04:03:23;50.70;;;37.55;;
63217;SDS011;49314;48.278;16.378;2024-03-06T04:05:48;73.45;;;47.10;;
63217;SDS011;49314;48.278;16.378;2024-03-06T04:08:14;60.50;;;41.55;;
63217;SDS011;49314;48.278;16.378;2024-03-06T04:10:39;55.03;;;39.22;;
63217;SDS011;49314;48.278;16.378;2024-03-06T04:13:05;50.20;;;34.17;;
63217;SDS011;49314;48.278;16.378;2024-03-06T04:15:31;52.20;;;38.47;;
63217;SDS011;49314;48.278;16.378;2024-03-06T04:17:56;56.53;;;42.03;;
63217;SDS011;49314;48.278;16.378;2024-03-06T04:20:21;50.50;;;37.35;;
63217;SDS011;49314;48.278;16.378;2024-03-06T04:22:47;52.25;;;39.67;;
63217;SDS011;49314;48.278;16.378;2024-03-06T04:25:13;47.50;;;33.72;;
63217;SDS011;49314;48.278;16.378;2024-03-06T04:27:38;43.25;;;35.08;;
63217;SDS011;49314;48.278;16.378;2024-03-06T04:30:04;50.17;;;35.25;;
63217;SDS011;49314;48.278;16.378;2024-03-06T04:32:29;45.90;;;33.97;;
63217;SDS011;49314;48.278;16.378;2024-03-06T04:34:54;45.40;;;35.72;;
63217;SDS011;49314;48.278;16.378;2024-03-06T04:37:21;46.38;;;39.28;;
63217;SDS011;49314;48.278;16.378;2024-03-06T04:39:46;42.25;;;33.60;;
63217;SDS011;49314;48.278;16.378;2024-03-06T04:42:12;41.17;;;31.17;;
63217;SDS011;49314;48.278;16.378;2024-03-06T04:44:37;44.83;;;34.13;;
63217;SDS011;49314;48.278;16.378;2024-03-06T04:47:03;44.90;;;33.03;;
63217;SDS011;49314;48.278;16.378;2024-03-06T04:49:28;49.03;;;34.92;;
63217;SDS011;49314;48.278;16.378;2024-03-06T04:51:57;43.58;;;34.45;;
63217;SDS011;49314;48.278;16.378;2024-03-06T04:54:22;41.72;;;31.48;;
63217;SDS011;49314;48.278;16.378;2024-03-06T04:56:47;48.10;;;32.92;;
63217;SDS011;49314;48.278;16.378;2024-03-06T04:59:13;42.80;;;34.17;;
63217;SDS011;49314;48.278;16.378;2024-03-06T05:01:38;43.58;;;33.55;;
63217;SDS011;49314;48.278;16.378;2024-03-06T05:04:04;42.97;;;34.20;;
63217;SDS011;49314;48.278;16.378;2024-03-06T05:06:29;43.50;;;33.88;;
63217;SDS011;49314;48.278;16.378;2024-03-06T05:08:54;39.70;;;31.92;;
63217;SDS011;49314;48.278;16.378;2024-03-06T05:11:20;43.35;;;34.03;;
63217;SDS011;49314;48.278;16.378;2024-03-06T05:13:45;41.53;;;30.98;;
63217;SDS011;49314;48.278;16.378;2024-03-06T05:16:10;40.60;;;30.60;;
63217;SDS011;49314;48.278;16.378;2024-03-06T05:18:35;44.30;;;34.50;;
63217;SDS011;49314;48.278;16.378;2024-03-06T05:21:01;42.60;;;35.70;;
63217;SDS011;49314;48.278;16.378;2024-03-06T05:23:26;40.20;;;33.17;;
63217;SDS011;49314;48.278;16.378;2024-03-06T05:25:51;43.22;;;35.83;;
63217;SDS011;49314;48.278;16.378;2024-03-06T05:28:17;42.97;;;34.45;;
63217;SDS011;49314;48.278;16.378;2024-03-06T05:30:42;34.35;;;26.92;;
63217;SDS011;49314;48.278;16.378;2024-03-06T05:33:07;34.72;;;28.27;;
63217;SDS011;49314;48.278;16.378;2024-03-06T05:35:32;34.75;;;29.95;;
63217;SDS011;49314;48.278;16.378;2024-03-06T05:37:58;35.65;;;28.15;;
63217;SDS011;49314;48.278;16.378;2024-03-06T05:40:23;36.83;;;27.20;;
63217;SDS011;49314;48.278;16.378;2024-03-06T05:42:48;35.17;;;30.25;;
63217;SDS011;49314;48.278;16.378;2024-03-06T05:45:14;36.25;;;28.88;;
63217;SDS011;49314;48.278;16.378;2024-03-06T05:47:39;36.10;;;29.20;;
63217;SDS011;49314;48.278;16.378;2024-03-06T05:50:05;33.78;;;29.77;;
63217;SDS011;49314;48.278;16.378;2024-03-06T05:52:31;33.45;;;28.10;;
63217;SDS011;49314;48.278;16.378;2024-03-06T05:54:56;32.15;;;27.98;;
63217;SDS011;49314;48.278;16.378;2024-03-06T05:57:23;31.60;;;26.90;;
63217;SDS011;49314;48.278;16.378;2024-03-06T05:59:48;33.53;;;24.80;;
63217;SDS011;49314;48.278;16.378;2024-03-06T06:02:13;31.25;;;25.95;;
63217;SDS011;49314;48.278;16.378;2024-03-06T06:04:41;33.90;;;27.65;;
63217;SDS011;49314;48.278;16.378;2024-03-06T06:07:06;31.83;;;25.17;;
63217;SDS011;49314;48.278;16.378;2024-03-06T06:09:31;31.67;;;24.63;;
63217;SDS011;49314;48.278;16.378;2024-03-06T06:11:58;32.00;;;27.30;;
63217;SDS011;49314;48.278;16.378;2024-03-06T06:14:23;28.30;;;24.00;;
63217;SDS011;49314;48.278;16.378;2024-03-06T06:16:48;34.33;;;24.85;;
63217;SDS011;49314;48.278;16.378;2024-03-06T06:19:13;31.67;;;26.73;;
63217;SDS011;49314;48.278;16.378;2024-03-06T06:21:39;42.00;;;32.47;;
63217;SDS011;49314;48.278;16.378;2024-03-06T06:24:04;34.58;;;27.92;;
63217;SDS011;49314;48.278;16.378;2024-03-06T06:26:30;79.45;;;54.08;;
63217;SDS011;49314;48.278;16.378;2024-03-06T06:28:56;31.15;;;27.17;;
63217;SDS011;49314;48.278;16.378;2024-03-06T06:31:21;40.80;;;32.75;;
63217;SDS011;49314;48.278;16.378;2024-03-06T06:33:47;55.90;;;34.60;;
63217;SDS011;49314;48.278;16.378;2024-03-06T06:36:12;70.88;;;44.17;;
63217;SDS011;49314;48.278;16.378;2024-03-06T06:38:38;31.50;;;25.65;;
63217;SDS011;49314;48.278;16.378;2024-03-06T06:41:03;29.00;;;25.23;;
63217;SDS011;49314;48.278;16.378;2024-03-06T06:43:28;25.50;;;19.90;;
63217;SDS011;49314;48.278;16.378;2024-03-06T06:45:54;29.98;;;24.10;;
63217;SDS011;49314;48.278;16.378;2024-03-06T06:48:19;23.98;;;21.42;;
63217;SDS011;49314;48.278;16.378;2024-03-06T06:50:44;28.02;;;23.27;;
63217;SDS011;49314;48.278;16.378;2024-03-06T06:53:12;29.95;;;25.65;;
63217;SDS011;49314;48.278;16.378;2024-03-06T06:55:38;28.05;;;25.05;;
63217;SDS011;49314;48.278;16.378;2024-03-06T06:58:03;27.13;;;23.10;;
63217;SDS011;49314;48.278;16.378;2024-03-06T07:00:28;31.42;;;23.77;;
63217;SDS011;49314;48.278;16.378;2024-03-06T07:02:55;28.35;;;22.70;;
63217;SDS011;49314;48.278;16.378;2024-03-06T07:05:23;32.55;;;23.00;;
63217;SDS011;49314;48.278;16.378;2024-03-06T07:07:49;26.13;;;21.52;;
63217;SDS011;49314;48.278;16.378;2024-03-06T07:10:14;25.77;;;23.13;;
63217;SDS011;49314;48.278;16.378;2024-03-06T07:12:39;32.75;;;24.92;;
63217;SDS011;49314;48.278;16.378;2024-03-06T07:15:04;28.75;;;24.60;;
63217;SDS011;49314;48.278;16.378;2024-03-06T07:17:31;28.70;;;23.17;;
63217;SDS011;49314;48.278;16.378;2024-03-06T07:19:56;29.45;;;23.73;;
63217;SDS011;49314;48.278;16.378;2024-03-06T07:22:21;26.83;;;21.80;;
63217;SDS011;49314;48.278;16.378;2024-03-06T07:24:47;28.98;;;23.88;;
63217;SDS011;49314;48.278;16.378;2024-03-06T07:27:12;28.13;;;22.10;;
63217;SDS011;49314;48.278;16.378;2024-03-06T07:29:38;30.95;;;23.15;;
63217;SDS011;49314;48.278;16.378;2024-03-06T07:32:03;24.52;;;20.77;;
63217;SDS011;49314;48.278;16.378;2024-03-06T07:34:31;29.33;;;25.35;;
63217;SDS011;49314;48.278;16.378;2024-03-06T07:36:57;26.42;;;22.27;;
63217;SDS011;49314;48.278;16.378;2024-03-06T07:39:24;24.90;;;22.15;;
63217;SDS011;49314;48.278;16.378;2024-03-06T07:41:49;25.92;;;23.10;;
63217;SDS011;49314;48.278;16.378;2024-03-06T07:44:15;27.25;;;22.85;;
63217;SDS011;49314;48.278;16.378;2024-03-06T07:46:41;24.40;;;21.80;;
63217;SDS011;49314;48.278;16.378;2024-03-06T07:49:06;25.05;;;21.05;;
63217;SDS011;49314;48.278;16.378;2024-03-06T07:51:32;29.25;;;26.08;;
63217;SDS011;49314;48.278;16.378;2024-03-06T07:53:57;27.98;;;23.63;;
63217;SDS011;49314;48.278;16.378;2024-03-06T07:56:23;32.33;;;28.20;;
63217;SDS011;49314;48.278;16.378;2024-03-06T07:58:48;25.88;;;23.10;;
63217;SDS011;49314;48.278;16.378;2024-03-06T08:01:13;26.85;;;24.15;;
63217;SDS011;49314;48.278;16.378;2024-03-06T08:03:39;26.45;;;22.25;;
63217;SDS011;49314;48.278;16.378;2024-03-06T08:06:05;23.90;;;21.45;;
63217;SDS011;49314;48.278;16.378;2024-03-06T08:08:30;23.90;;;20.40;;
63217;SDS011;49314;48.278;16.378;2024-03-06T08:10:56;26.15;;;23.52;;
63217;SDS011;49314;48.278;16.378;2024-03-06T08:13:21;23.67;;;21.27;;
63217;SDS011;49314;48.278;16.378;2024-03-06T08:15:46;23.27;;;20.88;;
63217;SDS011;49314;48.278;16.378;2024-03-06T08:18:12;23.50;;;21.27;;
63217;SDS011;49314;48.278;16.378;2024-03-06T08:20:38;24.80;;;22.30;;
63217;SDS011;49314;48.278;16.378;2024-03-06T08:23:04;23.55;;;21.02;;
63217;SDS011;49314;48.278;16.378;2024-03-06T08:25:29;23.27;;;20.77;;
63217;SDS011;49314;48.278;16.378;2024-03-06T08:27:57;26.02;;;21.65;;
63217;SDS011;49314;48.278;16.378;2024-03-06T08:30:24;23.73;;;21.27;;
63217;SDS011;49314;48.278;16.378;2024-03-06T08:32:49;26.58;;;23.90;;
63217;SDS011;49314;48.278;16.378;2024-03-06T08:35:15;24.60;;;22.10;;
63217;SDS011;49314;48.278;16.378;2024-03-06T08:37:43;36.67;;;32.67;;
63217;SDS011;49314;48.278;16.378;2024-03-06T08:40:08;65.32;;;56.42;;
63217;SDS011;49314;48.278;16.378;2024-03-06T08:42:51;32.58;;;25.73;;
63217;SDS011;49314;48.278;16.378;2024-03-06T08:45:16;31.42;;;28.08;;
63217;SDS011;49314;48.278;16.378;2024-03-06T08:47:43;27.92;;;25.08;;
63217;SDS011;49314;48.278;16.378;2024-03-06T08:50:08;28.33;;;25.23;;
63217;SDS011;49314;48.278;16.378;2024-03-06T08:52:34;30.92;;;27.60;;
63217;SDS011;49314;48.278;16.378;2024-03-06T08:55:00;29.27;;;26.33;;
63217;SDS011;49314;48.278;16.378;2024-03-06T08:57:25;27.65;;;24.95;;
63217;SDS011;49314;48.278;16.378;2024-03-06T08:59:53;28.58;;;25.58;;
63217;SDS011;49314;48.278;16.378;2024-03-06T09:02:19;23.63;;;21.33;;
63217;SDS011;49314;48.278;16.378;2024-03-06T09:04:47;27.65;;;24.75;;
63217;SDS011;49314;48.278;16.378;2024-03-06T09:07:12;25.60;;;23.00;;
63217;SDS011;49314;48.278;16.378;2024-03-06T09:09:38;30.92;;;27.27;;
63217;SDS011;49314;48.278;16.378;2024-03-06T09:12:04;27.05;;;24.35;;
63217;SDS011;49314;48.278;16.378;2024-03-06T09:14:31;26.60;;;23.98;;
63217;SDS011;49314;48.278;16.378;2024-03-06T09:16:56;26.40;;;23.70;;
63217;SDS011;49314;48.278;16.378;2024-03-06T09:19:22;26.40;;;23.90;;
63217;SDS011;49314;48.278;16.378;2024-03-06T09:21:48;27.13;;;24.52;;
63217;SDS011;49314;48.278;16.378;2024-03-06T09:24:13;26.88;;;24.20;;
63217;SDS011;49314;48.278;16.378;2024-03-06T09:26:39;26.13;;;23.47;;
63217;SDS011;49314;48.278;16.378;2024-03-06T09:29:04;24.85;;;22.38;;
63217;SDS011;49314;48.278;16.378;2024-03-06T09:31:29;24.92;;;22.58;;
63217;SDS011;49314;48.278;16.378;2024-03-06T09:33:55;25.58;;;23.00;;
63217;SDS011;49314;48.278;16.378;2024-03-06T09:36:20;25.83;;;23.23;;
63217;SDS011;49314;48.278;16.378;2024-03-06T09:38:46;24.48;;;21.88;;
63217;SDS011;49314;48.278;16.378;2024-03-06T09:41:11;24.57;;;22.27;;
63217;SDS011;49314;48.278;16.378;2024-03-06T09:43:36;24.47;;;22.17;;
63217;SDS011;49314;48.278;16.378;2024-03-06T09:46:02;25.65;;;23.15;;
63217;SDS011;49314;48.278;16.378;2024-03-06T09:48:27;23.05;;;20.83;;
63217;SDS011;49314;48.278;16.378;2024-03-06T09:50:54;23.35;;;21.15;;
63217;SDS011;49314;48.278;16.378;2024-03-06T09:53:22;23.58;;;21.38;;
63217;SDS011;49314;48.278;16.378;2024-03-06T09:55:49;24.23;;;21.85;;
63217;SDS011;49314;48.278;16.378;2024-03-06T09:58:14;23.00;;;20.75;;
63217;SDS011;49314;48.278;16.378;2024-03-06T10:00:40;21.17;;;18.93;;
63217;SDS011;49314;48.278;16.378;2024-03-06T10:03:05;21.05;;;19.05;;
63217;SDS011;49314;48.278;16.378;2024-03-06T10:05:30;23.85;;;21.35;;
63217;SDS011;49314;48.278;16.378;2024-03-06T10:07:57;21.17;;;19.27;;
63217;SDS011;49314;48.278;16.378;2024-03-06T10:10:24;19.80;;;18.02;;
63217;SDS011;49314;48.278;16.378;2024-03-06T10:12:49;18.58;;;16.65;;
63217;SDS011;49314;48.278;16.378;2024-03-06T10:15:15;17.20;;;15.55;;
63217;SDS011;49314;48.278;16.378;2024-03-06T10:17:40;17.70;;;15.95;;
63217;SDS011;49314;48.278;16.378;2024-03-06T10:22:45;18.80;;;17.10;;
63217;SDS011;49314;48.278;16.378;2024-03-06T10:25:11;16.35;;;14.82;;
63217;SDS011;49314;48.278;16.378;2024-03-06T10:27:36;18.90;;;17.13;;
63217;SDS011;49314;48.278;16.378;2024-03-06T10:30:02;18.83;;;17.13;;
63217;SDS011;49314;48.278;16.378;2024-03-06T10:32:28;20.92;;;18.80;;
63217;SDS011;49314;48.278;16.378;2024-03-06T10:34:55;18.45;;;16.65;;
63217;SDS011;49314;48.278;16.378;2024-03-06T10:37:20;18.58;;;16.98;;
63217;SDS011;49314;48.278;16.378;2024-03-06T10:39:47;18.67;;;16.88;;
63217;SDS011;49314;48.278;16.378;2024-03-06T10:42:14;18.08;;;16.58;;
63217;SDS011;49314;48.278;16.378;2024-03-06T10:44:42;19.77;;;18.00;;
63217;SDS011;49314;48.278;16.378;2024-03-06T10:47:09;18.33;;;16.65;;
63217;SDS011;49314;48.278;16.378;2024-03-06T10:49:34;18.45;;;16.70;;
63217;SDS011;49314;48.278;16.378;2024-03-06T10:52:04;17.70;;;16.10;;
63217;SDS011;49314;48.278;16.378;2024-03-06T10:54:33;16.63;;;14.95;;
63217;SDS011;49314;48.278;16.378;2024-03-06T10:57:00;16.17;;;14.68;;
63217;SDS011;49314;48.278;16.378;2024-03-06T10:59:26;17.30;;;15.32;;
63217;SDS011;49314;48.278;16.378;2024-03-06T11:01:57;19.33;;;17.48;;
63217;SDS011;49314;48.278;16.378;2024-03-06T11:04:26;18.00;;;16.23;;
63217;SDS011;49314;48.278;16.378;2024-03-06T11:06:53;17.33;;;15.77;;
63217;SDS011;49314;48.278;16.378;2024-03-06T11:09:19;17.83;;;16.00;;
63217;SDS011;49314;48.278;16.378;2024-03-06T11:11:48;19.85;;;18.05;;
63217;SDS011;49314;48.278;16.378;2024-03-06T11:14:13;21.38;;;19.13;;
63217;SDS011;49314;48.278;16.378;2024-03-06T11:16:55;19.63;;;17.77;;
63217;SDS011;49314;48.278;16.378;2024-03-06T11:21:46;29.52;;;24.27;;
63217;SDS011;49314;48.278;16.378;2024-03-06T11:24:16;21.65;;;19.55;;
63217;SDS011;49314;48.278;16.378;2024-03-06T11:26:42;24.98;;;22.30;;
63217;SDS011;49314;48.278;16.378;2024-03-06T11:29:08;19.88;;;18.02;;
63217;SDS011;49314;48.278;16.378;2024-03-06T11:31:33;25.85;;;23.13;;
63217;SDS011;49314;48.278;16.378;2024-03-06T11:34:01;21.70;;;19.75;;
63217;SDS011;49314;48.278;16.378;2024-03-06T11:36:28;27.70;;;24.85;;
63217;SDS011;49314;48.278;16.378;2024-03-06T11:38:57;20.37;;;18.40;;
63217;SDS011;49314;48.278;16.378;2024-03-06T11:41:28;21.08;;;18.98;;
63217;SDS011;49314;48.278;16.378;2024-03-06T11:43:54;23.17;;;20.70;;
63217;SDS011;49314;48.278;16.378;2024-03-06T11:46:40;22.42;;;20.33;;
63217;SDS011;49314;48.278;16.378;2024-03-06T11:49:06;22.27;;;20.05;;
63217;SDS011;49314;48.278;16.378;2024-03-06T11:51:39;21.80;;;19.70;;
63217;SDS011;49314;48.278;16.378;2024-03-06T11:54:05;22.17;;;19.98;;
63217;SDS011;49314;48.278;16.378;2024-03-06T11:56:30;21.70;;;19.63;;
63217;SDS011;49314;48.278;16.378;2024-03-06T11:58:55;21.88;;;19.70;;
63217;SDS011;49314;48.278;16.378;2024-03-06T12:01:20;22.67;;;20.43;;
63217;SDS011;49314;48.278;16.378;2024-03-06T12:03:46;23.80;;;21.43;;
63217;SDS011;49314;48.278;16.378;2024-03-06T12:06:12;22.20;;;20.05;;
63217;SDS011;49314;48.278;16.378;2024-03-06T12:08:38;23.60;;;21.20;;
63217;SDS011;49314;48.278;16.378;2024-03-06T12:11:04;24.33;;;21.83;;
63217;SDS011;49314;48.278;16.378;2024-03-06T12:13:30;23.00;;;20.70;;
63217;SDS011;49314;48.278;16.378;2024-03-06T12:15:55;22.52;;;20.25;;
63217;SDS011;49314;48.278;16.378;2024-03-06T12:18:21;23.50;;;21.20;;
63217;SDS011;49314;48.278;16.378;2024-03-06T12:20:49;24.75;;;22.05;;
63217;SDS011;49314;48.278;16.378;2024-03-06T12:23:21;22.23;;;20.13;;
63217;SDS011;49314;48.278;16.378;2024-03-06T12:28:13;25.58;;;22.95;;
63217;SDS011;49314;48.278;16.378;2024-03-06T12:30:42;26.15;;;23.35;;
63217;SDS011;49314;48.278;16.378;2024-03-06T12:33:09;26.80;;;23.52;;
63217;SDS011;49314;48.278;16.378;2024-03-06T12:35:35;25.10;;;21.73;;
63217;SDS011;49314;48.278;16.378;2024-03-06T12:38:10;29.67;;;22.92;;
63217;SDS011;49314;48.278;16.378;2024-03-06T12:40:36;25.23;;;21.25;;
63217;SDS011;49314;48.278;16.378;2024-03-06T12:43:01;28.00;;;21.77;;
63217;SDS011;49314;48.278;16.378;2024-03-06T12:45:27;23.45;;;20.90;;
63217;SDS011;49314;48.278;16.378;2024-03-06T12:47:52;24.15;;;21.65;;
63217;SDS011;49314;48.278;16.378;2024-03-06T12:50:19;25.80;;;21.70;;
63217;SDS011;49314;48.278;16.378;2024-03-06T12:52:45;24.27;;;21.85;;
63217;SDS011;49314;48.278;16.378;2024-03-06T12:55:11;21.35;;;19.25;;
63217;SDS011;49314;48.278;16.378;2024-03-06T12:57:36;23.38;;;21.00;;
63217;SDS011;49314;48.278;16.378;2024-03-06T13:00:01;19.48;;;16.95;;
63217;SDS011;49314;48.278;16.378;2024-03-06T13:02:27;20.52;;;18.42;;
63217;SDS011;49314;48.278;16.378;2024-03-06T13:04:52;21.80;;;19.60;;
63217;SDS011;49314;48.278;16.378;2024-03-06T13:07:18;21.75;;;19.52;;
63217;SDS011;49314;48.278;16.378;2024-03-06T13:09:43;21.98;;;19.77;;
63217;SDS011;49314;48.278;16.378;2024-03-06T13:12:09;22.15;;;19.63;;
63217;SDS011;49314;48.278;16.378;2024-03-06T13:14:35;22.38;;;19.95;;
63217;SDS011;49314;48.278;16.378;2024-03-06T13:17:00;23.48;;;21.17;;
63217;SDS011;49314;48.278;16.378;2024-03-06T13:19:26;22.02;;;19.73;;
63217;SDS011;49314;48.278;16.378;2024-03-06T13:21:51;22.13;;;19.77;;
63217;SDS011;49314;48.278;16.378;2024-03-06T13:24:17;22.58;;;20.20;;
63217;SDS011;49314;48.278;16.378;2024-03-06T13:26:43;20.98;;;18.75;;
63217;SDS011;49314;48.278;16.378;2024-03-06T13:29:08;23.48;;;19.40;;
63217;SDS011;49314;48.278;16.378;2024-03-06T13:31:34;22.80;;;20.48;;
63217;SDS011;49314;48.278;16.378;2024-03-06T13:34:00;24.10;;;19.33;;
63217;SDS011;49314;48.278;16.378;2024-03-06T13:36:25;23.45;;;20.23;;
63217;SDS011;49314;48.278;16.378;2024-03-06T13:38:51;20.63;;;18.52;;
63217;SDS011;49314;48.278;16.378;2024-03-06T13:41:16;22.45;;;20.05;;
63217;SDS011;49314;48.278;16.378;2024-03-06T13:43:42;21.42;;;19.23;;
63217;SDS011;49314;48.278;16.378;2024-03-06T13:46:07;22.85;;;18.67;;
63217;SDS011;49314;48.278;16.378;2024-03-06T13:48:32;23.02;;;20.45;;
63217;SDS011;49314;48.278;16.378;2024-03-06T13:50:57;26.65;;;21.75;;
63217;SDS011;49314;48.278;16.378;2024-03-06T13:53:23;23.38;;;20.27;;
63217;SDS011;49314;48.278;16.378;2024-03-06T13:55:48;32.63;;;24.58;;
63217;SDS011;49314;48.278;16.378;2024-03-06T13:58:13;23.85;;;20.02;;
63217;SDS011;49314;48.278;16.378;2024-03-06T14:00:39;28.80;;;20.25;;
63217;SDS011;49314;48.278;16.378;2024-03-06T14:03:05;23.15;;;20.42;;
63217;SDS011;49314;48.278;16.378;2024-03-06T14:05:30;20.58;;;18.40;;
63217;SDS011;49314;48.278;16.378;2024-03-06T14:07:55;24.55;;;20.35;;